KDHT

Details ICAO KDHT (DHT)
Name DALHART MUNI
Region United States
Timezone America/Chicago (UTC-5.0)
Plans Departing 2
Arriving 7
Stats Elevation 3,991 ft / 1,216 m (AMSL)
Location 36.022601° -102.547334°
Runways 2
Magnetic Variation 6.614° E
Sunrise 2018-05-22 11:40:53 UTC / 2018-05-22 06:40:53 Local
Sunset 2018-05-23 01:55:44 UTC / 2018-05-22 20:55:44 Local
Advertisement - Login to hide

Runways

ID Width Length Bearing (true) Bearing (mag) Surface Threshold Offset Overrun Length
03 75 ft / 23 m 5,669 ft / 1,728 m 44.72° 38.11° Asphalt 0 ft / 0 m 0 ft / 0 m
17 75 ft / 23 m 6,414 ft / 1,955 m 179.89° 173.28° Asphalt 0 ft / 0 m 0 ft / 0 m
21 75 ft / 23 m 5,669 ft / 1,728 m 224.73° 218.12° Asphalt 224 ft / 68 m 0 ft / 0 m
35 75 ft / 23 m 6,414 ft / 1,955 m 359.89° 353.28° Asphalt 0 ft / 0 m 0 ft / 0 m

Map

Weather


0- 5 10 15 20 25 30 35+ Temperature / ° C

Clouds and Precipitation
Forecast for 2018-05-23 00:00 UTC. Updated 33 minutes ago

Ground ~20,000 ft ~40,000 ft Winds

METAR

KDHT 222253Z AUTO 18015G22KT 10SM FEW060 27/12 A2996 RMK AO2 SLP094 T02670117

TAF

KDHT 221900Z 2219/2318 19012G22KT P6SM SCT045 FM222100 18015G25KT P6SM VCTS SCT070CB FM230300 16010KT P6SM SCT060 FM231500 20015KT P6SM SCT200

Frequencies

Recorded 134.07 MHz ASOS
Unicom 122.95 MHz CTAF/UNICOM
Warning: Do not use this data for real-world aviation or navigation. No guarantee of current accuracy is given.